Historyczne dane pomiarowe

Dodano dane terminowe – wersja testowa.

Dane z okresu 1951-2019

Wersja bazy: 1.34 [2019-03-16, lista zmian], aktualizacja planowana na 2019-04-15

Dane meteo z obszaru Polski uzyskane na podstawie danych udostępnionych przez Instytut Meteorologii i Gospodarki Wodnej – Państwowy Instytut Badawczy.

 

Wybierz Datę:    

       

TemperaturaWilgotnośćWiatrCiśnienieOpadyŚniegCzas trwania zjawisk
 Stacja t tx tn tng RH VA  wxwx mslp ppp RRR   cm mm wxwxwxwxwxwxwx
1994-10-10 6.5 9.9 2.4 2.4 98.5- 8.0 7.0---- 3.5------------
1994-10-09 7.9 11.2 6.7 5.9 95.5- 8.0 5.3---- 11.7------------
1994-10-08 7.9 12.0 5.4 4.5 77.0- 7.3 2.0---- 5.7------------
1994-10-07 2.7 8.4 -1.6 -1.7 87.3- 5.3 1.0---- 0.0------------
1994-10-06 1.4 3.8 -1.2 -3.5 98.3- 8.0 1.0---- 0.0------------
1994-10-05 2.4 5.1 -0.9 -1.6 89.5- 5.0 3.0---- 0.3------------
1994-10-04 6.0 13.9 2.9 -1.1 76.8- 4.7 4.3---- 0.0------------
1994-10-03 10.1 16.8 2.4 0.0 90.8- 8.0 5.7---- 6.0------------
1994-10-02 6.7 12.4 2.2 -1.0 76.3- 6.0 3.7---- 0.0------------
1994-10-01 10.5 13.2 6.1 5.2 84.3- 6.0 6.0---- 0.3------------
1994-09-30 10.8 14.4 7.2 5.2 82.0- 7.3 2.0---- 0.0------------
1994-09-29 10.6 13.4 7.2 5.2 75.8- 8.0 8.7---- 2.1------------
1994-09-28 11.0 13.2 8.9 6.9 65.8- 3.7 11.0---- 0.0------------
1994-09-27 13.3 15.6 11.6 9.3 83.5- 6.7 2.7---- 0.0------------
1994-09-26 14.4 18.2 12.4 10.9 91.3- 5.3 1.7---- 0.0------------
1994-09-25 13.6 20.2 5.7 3.4 81.3- 1.7 2.0---- 0.0------------
1994-09-24 12.0 19.2 5.4 4.3 83.0- 1.0 0.7---- 0.0------------
1994-09-23 13.7 17.0 11.7 10.6 86.0- 4.3 3.0---- 0.1------------
1994-09-22 12.9 15.6 11.4 11.4 97.0- 8.0 2.0---- 0.7------------
1994-09-21 14.4 19.4 10.3 10.1 90.8- 7.7 2.7---- 0.0------------
1994-09-20 11.2 13.2 8.8 6.1 85.5- 8.0 3.3---- 1.2------------
1994-09-19 10.3 16.8 5.8 3.0 88.5- 5.0 1.0---- 0.0------------
1994-09-18 10.7 13.3 9.7 8.9 88.0- 6.3 2.3---- 0.0------------
1994-09-17 12.2 17.6 6.8 5.5 74.8- 4.7 4.7---- 1.2------------
1994-09-16 14.5 18.2 12.2 9.4 80.3- 4.7 4.0---- 0.5------------
1994-09-15 19.1 26.2 15.1 14.9 75.8- 7.3 5.3---- 4.5------------
1994-09-14 15.9 20.6 12.2 10.3 89.8- 5.0 1.7---- 0.0------------
1994-09-13 16.4 20.0 13.8 12.2 90.3- 7.7 3.0---- 0.0------------
1994-09-12 13.3 19.6 6.7 4.9 77.8- 5.3 3.3---- 0.2------------
1994-09-11 12.3 15.6 10.1 8.9 82.8- 6.3 4.0---- 6.1------------
1994-09-10 13.8 19.6 8.3 5.8 74.5- 5.0 2.7---- 0.0------------
1994-09-09 16.9 24.7 13.9 12.4 79.0- 6.7 4.0---- 0.8------------
1994-09-08 12.1 17.0 6.8 5.9 88.5- 7.3 3.3---- 0.0------------
1994-09-07 11.3 13.6 10.1 8.5 99.0- 8.0 1.3---- 4.2------------
1994-09-06 14.3 18.9 12.9 12.8 87.3- 7.0 3.0---- 0.8------------
1994-09-05 15.8 22.4 11.4 10.3 82.5- 7.3 3.7---- 9.4------------
1994-09-04 15.5 19.8 13.2 11.2 87.8- 7.7 2.0---- 0.2------------
1994-09-03 17.8 23.4 13.9 13.6 84.3- 8.0 3.0---- 6.5------------
1994-09-02 15.3 18.6 14.4 13.3 81.0- 8.0 4.0---- 0.0------------
1994-09-01 15.7 22.2 9.7 5.9 59.0- 5.0 4.7---- 0.0------------
1994-08-31 13.4 20.6 7.6 4.9 72.5- 5.0 1.0---- 0.0------------
1994-08-30 13.9 19.0 10.4 8.3 71.3- 5.7 6.0---- 0.0------------
1994-08-29 14.2 19.4 9.0 7.0 73.5- 3.7 3.0---- 0.0------------
1994-08-28 17.4 22.0 11.9 9.9 62.8- 7.7 5.7---- 1.6------------
1994-08-27 17.3 23.8 10.4 6.4 54.8- 3.3 1.7---- 0.0------------
1994-08-26 16.6 22.1 10.7 8.9 58.8- 6.3 3.3---- 0.0------------
1994-08-25 16.2 21.4 11.0 10.3 66.5- 2.3 2.7---- 0.0------------
1994-08-24 15.0 19.6 11.9 9.3 87.3- 6.3 1.0---- 0.1------------
1994-08-23 14.5 20.2 9.2 6.9 83.0- 6.0 2.3---- 0.0------------
1994-08-22 14.3 19.4 10.4 8.3 83.3- 5.7 2.3---- 0.4------------
1994-08-21 14.0 18.8 10.4 8.8 90.3- 7.7 4.3---- 4.6------------
1994-08-20 12.7 19.4 9.3 7.3 84.0- 6.3 1.7---- 1.5------------
1994-08-19 12.8 16.2 11.6 11.6 87.8- 7.0 1.3---- 0.5------------
1994-08-18 15.6 21.8 11.8 9.9 82.3- 7.3 4.0---- 8.3------------
1994-08-17 15.4 20.6 10.3 7.6 75.0- 7.0 1.7---- 0.0------------
1994-08-16 16.1 22.0 13.4 12.1 80.0- 6.0 4.3---- 4.0------------
1994-08-15 11.7 17.0 8.4 6.4 87.8- 7.7 3.3---- 0.5------------
1994-08-14 14.1 17.6 10.9 10.9 75.5- 6.0 8.0---- 1.0------------
1994-08-13 17.1 23.4 13.4 11.1 90.0- 6.0 1.3---- 1.9------------
1994-08-12 17.3 21.6 11.9 9.6 73.8- 5.3 2.7---- 0.0------------
553.2 ms

 

Źródłem pochodzenia danych jest Instytut Meteorologii i Gospodarki Wodnej – Państwowy Instytut Badawczy. Dane Instytutu Meteorologii i Gospodarki Wodnej – Państwowego Instytutu Badawczego zostały przetworzone.

Dane źródłowe można odnaleźć na stronie https://dane.imgw.pl